Time;durP1;ratioP1;P1;durP2;ratioP2;P2;SDS_P1;SDS_P2;PMS_P1;PMS_P2;Temp;Humidity;BMP_temperature;BMP_pressure;BME280_temperature;BME280_humidity;BME280_pressure;Samples;Min_cycle;Max_cycle;Signal;HPM_P1;HPM_P2
2023/05/07 00:01:32;;;;;;;29.83;18.77;;;13.10;99.90;;;;;;5033507;28;20086;-72
2023/05/07 00:03:57;;;;;;;25.73;18.60;;;13.10;99.90;;;;;;5044672;28;20044;-72
2023/05/07 00:06:23;;;;;;;27.27;18.83;;;13.00;99.90;;;;;;5033427;28;20041;-72
2023/05/07 00:08:49;;;;;;;26.13;17.37;;;13.00;99.90;;;;;;5031491;28;20037;-72
2023/05/07 00:11:15;;;;;;;25.27;18.07;;;13.00;99.90;;;;;;5049842;28;20283;-72
2023/05/07 00:13:40;;;;;;;24.87;18.03;;;13.00;99.90;;;;;;5047923;28;20048;-72
2023/05/07 00:16:06;;;;;;;23.00;17.37;;;13.00;99.90;;;;;;5044264;28;20453;-72
2023/05/07 00:18:32;;;;;;;25.23;17.87;;;13.00;99.90;;;;;;5030796;28;20080;-72
2023/05/07 00:20:57;;;;;;;25.20;18.07;;;12.90;99.90;;;;;;5026176;28;20073;-72
2023/05/07 00:23:23;;;;;;;26.57;17.90;;;12.90;99.90;;;;;;5047071;28;20033;-72
2023/05/07 00:25:49;;;;;;;24.57;17.47;;;12.90;99.90;;;;;;5031649;28;20094;-72
2023/05/07 00:28:14;;;;;;;25.83;17.87;;;12.90;99.90;;;;;;5043463;28;20048;-72
2023/05/07 00:30:40;;;;;;;22.37;18.17;;;12.90;99.90;;;;;;5030433;28;20500;-72
2023/05/07 00:33:06;;;;;;;23.87;18.23;;;12.90;99.90;;;;;;5027819;28;20040;-72
2023/05/07 00:35:31;;;;;;;24.47;17.97;;;12.80;99.90;;;;;;5044611;28;20130;-72
2023/05/07 00:37:57;;;;;;;25.23;17.67;;;12.80;99.90;;;;;;5045256;28;20094;-72
2023/05/07 00:40:23;;;;;;;23.73;16.93;;;12.80;99.90;;;;;;5043599;28;20145;-72
2023/05/07 00:42:49;;;;;;;24.10;17.80;;;12.80;99.90;;;;;;5028324;28;21192;-72
2023/05/07 00:45:16;;;;;;;25.93;18.17;;;12.70;99.90;;;;;;5045664;28;20041;-72
2023/05/07 00:47:42;;;;;;;27.20;17.53;;;12.80;99.90;;;;;;5030505;28;20040;-72
2023/05/07 00:50:12;;;;;;;23.70;17.10;;;12.70;99.90;;;;;;5048275;28;20283;-72
2023/05/07 00:52:38;;;;;;;22.63;17.10;;;12.70;99.90;;;;;;5024214;28;20291;-72
2023/05/07 00:55:06;;;;;;;28.77;18.40;;;12.70;99.90;;;;;;5029397;28;20283;-73
2023/05/07 00:57:39;;;;;;;29.90;17.37;;;12.70;99.90;;;;;;5020899;28;20040;-72
2023/05/07 01:00:08;;;;;;;22.60;16.13;;;12.70;99.90;;;;;;5048363;28;20300;-72
2023/05/07 01:02:37;;;;;;;23.23;16.33;;;12.70;99.90;;;;;;5042846;28;20280;-72
2023/05/07 01:05:06;;;;;;;24.07;18.03;;;12.70;99.90;;;;;;5046425;28;20873;-72
2023/05/07 01:07:33;;;;;;;24.57;16.20;;;12.70;99.90;;;;;;5046683;28;20291;-72
2023/05/07 01:10:00;;;;;;;23.80;16.30;;;12.70;99.90;;;;;;5032103;28;20291;-72
2023/05/07 01:12:27;;;;;;;25.90;17.40;;;12.70;99.90;;;;;;5030345;28;20292;-72
2023/05/07 01:14:53;;;;;;;26.97;16.93;;;12.60;99.90;;;;;;5039877;28;20422;-72
2023/05/07 01:17:19;;;;;;;24.30;16.70;;;12.60;99.90;;;;;;5046504;28;20295;-72
2023/05/07 01:19:45;;;;;;;26.17;16.13;;;12.60;99.90;;;;;;5027009;28;20843;-72
2023/05/07 01:22:12;;;;;;;22.57;16.80;;;12.60;99.90;;;;;;5045884;28;20775;-72
2023/05/07 01:24:38;;;;;;;20.90;15.30;;;12.60;99.90;;;;;;5031441;28;20284;-72
2023/05/07 01:27:04;;;;;;;22.83;16.47;;;12.60;99.90;;;;;;5028529;28;20798;-72
2023/05/07 01:29:30;;;;;;;25.07;16.37;;;12.60;99.90;;;;;;5037714;28;20326;-72
2023/05/07 01:32:00;;;;;;;22.13;15.93;;;12.60;99.90;;;;;;5042816;28;20292;-72
2023/05/07 01:34:30;;;;;;;28.70;17.13;;;12.60;99.90;;;;;;5021223;28;20401;-72
2023/05/07 01:36:58;;;;;;;23.03;17.10;;;12.60;99.90;;;;;;5048147;28;20802;-72
2023/05/07 01:39:26;;;;;;;22.63;16.47;;;12.50;99.90;;;;;;5044270;28;20304;-72
2023/05/07 01:41:54;;;;;;;22.43;15.63;;;12.50;99.90;;;;;;5045578;28;20280;-72
2023/05/07 01:44:20;;;;;;;25.03;17.57;;;12.50;99.90;;;;;;5026654;28;20391;-72
2023/05/07 01:46:47;;;;;;;23.63;15.90;;;12.50;99.90;;;;;;5030587;28;20350;-72
2023/05/07 01:49:13;;;;;;;25.13;16.67;;;12.50;99.90;;;;;;5044279;28;20116;-72
2023/05/07 01:51:39;;;;;;;22.97;16.77;;;12.50;99.90;;;;;;5041958;28;20362;-72
2023/05/07 01:54:06;;;;;;;26.37;17.53;;;12.50;99.90;;;;;;5027262;28;20036;-72
2023/05/07 01:56:32;;;;;;;24.50;18.33;;;12.50;99.90;;;;;;5027293;28;20317;-72
2023/05/07 01:58:57;;;;;;;29.37;18.40;;;12.50;99.90;;;;;;5043963;28;20765;-72
2023/05/07 02:01:23;;;;;;;27.60;18.43;;;12.40;99.90;;;;;;5031284;28;20041;-72
2023/05/07 02:03:49;;;;;;;24.20;18.00;;;12.40;99.90;;;;;;5046545;28;20060;-72
2023/05/07 02:06:15;;;;;;;26.73;18.77;;;12.40;99.90;;;;;;5046826;28;20094;-72
2023/05/07 02:08:41;;;;;;;28.23;19.23;;;12.40;99.90;;;;;;5045512;28;20532;-72
2023/05/07 02:11:06;;;;;;;27.93;19.57;;;12.40;99.90;;;;;;5045810;28;20052;-72
2023/05/07 02:13:34;;;;;;;25.13;19.40;;;12.40;99.90;;;;;;5029872;28;20102;-72
2023/05/07 02:16:00;;;;;;;28.93;19.73;;;12.40;99.90;;;;;;5046453;28;20041;-72
2023/05/07 02:18:26;;;;;;;27.50;20.53;;;12.40;99.90;;;;;;5028818;28;20315;-72
2023/05/07 02:20:52;;;;;;;30.37;20.97;;;12.40;99.90;;;;;;5020348;28;20495;-72
2023/05/07 02:23:17;;;;;;;30.27;22.53;;;12.30;99.90;;;;;;5039238;28;20316;-72
2023/05/07 02:25:43;;;;;;;30.50;21.47;;;12.30;99.90;;;;;;5044805;28;20452;-72
2023/05/07 02:28:09;;;;;;;33.80;22.90;;;12.30;99.90;;;;;;5045763;28;20125;-71
2023/05/07 02:30:35;;;;;;;29.97;22.80;;;12.30;99.90;;;;;;5023536;28;20505;-71
2023/05/07 02:33:01;;;;;;;35.43;23.37;;;12.30;99.90;;;;;;5045856;28;20063;-71
2023/05/07 02:35:26;;;;;;;37.73;23.97;;;12.30;99.90;;;;;;5028171;28;20284;-71
2023/05/07 02:37:52;;;;;;;30.90;22.77;;;12.20;99.90;;;;;;5023516;28;20042;-71
2023/05/07 02:40:18;;;;;;;35.37;24.10;;;12.20;99.90;;;;;;5045954;28;20452;-72
2023/05/07 02:42:43;;;;;;;32.23;22.80;;;12.20;99.90;;;;;;5025400;28;20041;-71
2023/05/07 02:45:10;;;;;;;37.50;24.27;;;12.10;99.90;;;;;;5028117;28;20396;-71
2023/05/07 02:47:35;;;;;;;36.00;25.40;;;12.10;99.90;;;;;;5046509;28;20044;-71
2023/05/07 02:50:01;;;;;;;33.00;24.50;;;12.10;99.90;;;;;;5034961;28;20283;-71
2023/05/07 02:52:27;;;;;;;33.60;22.80;;;12.10;99.90;;;;;;5029862;28;20516;-71
2023/05/07 02:54:53;;;;;;;34.93;24.97;;;12.10;99.90;;;;;;5031456;28;20096;-71
2023/05/07 02:57:18;;;;;;;39.07;24.93;;;12.00;99.90;;;;;;5048821;28;20827;-71
2023/05/07 02:59:44;;;;;;;35.37;24.97;;;12.00;99.90;;;;;;5050530;28;20460;-72
2023/05/07 03:02:10;;;;;;;35.10;25.10;;;12.00;99.90;;;;;;5022098;28;20030;-72
2023/05/07 03:04:39;;;;;;;37.67;24.40;;;12.00;99.90;;;;;;5033732;28;20095;-71
2023/05/07 03:07:05;;;;;;;34.50;24.83;;;12.00;99.90;;;;;;5048474;28;20291;-72
2023/05/07 03:09:30;;;;;;;35.83;25.80;;;11.90;99.90;;;;;;5033342;28;20317;-72
2023/05/07 03:11:57;;;;;;;35.50;25.60;;;11.90;99.90;;;;;;5048869;28;20045;-71
2023/05/07 03:14:23;;;;;;;36.77;25.57;;;11.90;99.90;;;;;;5033846;28;20045;-71
2023/05/07 03:16:49;;;;;;;37.37;25.40;;;11.80;99.90;;;;;;5050139;28;20337;-72
2023/05/07 03:19:15;;;;;;;37.50;26.00;;;11.80;99.90;;;;;;5031963;28;20075;-72
2023/05/07 03:21:41;;;;;;;40.43;26.63;;;11.80;99.90;;;;;;5031981;28;20303;-72
2023/05/07 03:24:07;;;;;;;37.73;25.63;;;11.80;99.90;;;;;;5030980;28;20079;-71
2023/05/07 03:26:32;;;;;;;38.50;25.87;;;11.70;99.90;;;;;;5050268;28;20047;-71
2023/05/07 03:28:58;;;;;;;36.27;26.27;;;11.70;99.90;;;;;;5033688;28;20048;-71
2023/05/07 03:31:24;;;;;;;39.57;27.20;;;11.70;99.90;;;;;;5031813;28;20044;-71
2023/05/07 03:33:51;;;;;;;37.33;26.37;;;11.60;99.90;;;;;;5028414;28;20102;-71
2023/05/07 03:36:17;;;;;;;37.97;26.63;;;11.50;99.90;;;;;;5022202;28;20726;-71
2023/05/07 03:38:43;;;;;;;39.40;26.87;;;11.50;99.90;;;;;;5050066;28;20307;-71
2023/05/07 03:41:09;;;;;;;39.97;27.17;;;11.50;99.90;;;;;;5050190;28;20068;-71
2023/05/07 03:43:35;;;;;;;39.43;26.67;;;11.50;99.90;;;;;;5044090;28;20494;-71
2023/05/07 03:46:00;;;;;;;39.57;28.37;;;11.50;99.90;;;;;;5030657;28;20029;-71
2023/05/07 03:48:26;;;;;;;37.97;27.57;;;11.40;99.90;;;;;;5048320;28;20044;-71
2023/05/07 03:50:52;;;;;;;41.07;27.87;;;11.40;99.90;;;;;;5029884;28;20057;-71
2023/05/07 03:53:17;;;;;;;37.00;28.17;;;11.40;99.90;;;;;;5048096;28;20515;-72
2023/05/07 03:55:43;;;;;;;40.80;28.10;;;11.30;99.90;;;;;;5046108;28;20086;-71
2023/05/07 03:58:09;;;;;;;39.53;26.70;;;11.30;99.90;;;;;;5048083;28;20037;-71
2023/05/07 04:00:38;;;;;;;39.90;28.90;;;11.30;99.90;;;;;;5031345;28;20041;-71
2023/05/07 04:03:04;;;;;;;40.33;27.47;;;11.30;99.90;;;;;;5048342;28;20040;-72
2023/05/07 04:05:30;;;;;;;43.67;28.53;;;11.30;99.90;;;;;;5019977;28;20354;-72
2023/05/07 04:07:58;;;;;;;47.40;30.07;;;11.30;99.90;;;;;;5032203;28;20788;-71
2023/05/07 04:10:24;;;;;;;38.23;28.13;;;11.30;99.90;;;;;;5043871;28;20283;-71
2023/05/07 04:12:49;;;;;;;41.07;28.80;;;11.30;99.90;;;;;;5031116;28;20818;-72
2023/05/07 04:15:15;;;;;;;41.70;28.97;;;11.30;99.90;;;;;;5023325;28;20132;-72
2023/05/07 04:17:41;;;;;;;41.27;28.43;;;11.30;99.90;;;;;;5033028;28;20045;-71
2023/05/07 04:20:10;;;;;;;41.13;28.03;;;11.20;99.90;;;;;;5045905;28;20045;-71
2023/05/07 04:22:36;;;;;;;44.30;29.10;;;11.20;99.90;;;;;;5044285;28;20433;-71
2023/05/07 04:25:03;;;;;;;44.63;30.23;;;11.20;99.90;;;;;;5031962;28;21847;-71
2023/05/07 04:27:29;;;;;;;43.70;28.87;;;11.20;99.90;;;;;;5032650;28;20287;-72
2023/05/07 04:29:58;;;;;;;48.33;30.57;;;11.20;99.90;;;;;;5049353;28;21614;-71
2023/05/07 04:32:24;;;;;;;44.87;29.30;;;11.10;99.90;;;;;;5036272;28;20275;-71
2023/05/07 04:34:50;;;;;;;44.83;29.77;;;11.10;99.90;;;;;;5039351;28;20889;-71
2023/05/07 04:37:16;;;;;;;45.33;29.53;;;11.10;99.90;;;;;;5047093;28;20290;-71
2023/05/07 04:39:42;;;;;;;45.30;30.77;;;11.10;99.90;;;;;;5049304;28;20053;-71
2023/05/07 04:42:08;;;;;;;46.33;31.30;;;11.10;99.90;;;;;;5032895;28;20280;-71
2023/05/07 04:44:36;;;;;;;49.37;31.63;;;11.10;99.90;;;;;;5029126;28;20045;-71
2023/05/07 04:47:02;;;;;;;45.83;31.07;;;11.10;99.90;;;;;;5042340;28;20291;-71
2023/05/07 04:49:28;;;;;;;47.00;31.40;;;11.10;99.90;;;;;;5032123;28;20280;-72
2023/05/07 04:51:54;;;;;;;49.07;31.87;;;11.20;99.90;;;;;;5046346;28;20068;-72
2023/05/07 04:54:19;;;;;;;45.43;31.40;;;11.10;99.90;;;;;;5047491;28;20048;-72
2023/05/07 04:56:45;;;;;;;45.60;31.57;;;11.10;99.90;;;;;;5041904;28;20032;-72
2023/05/07 04:59:11;;;;;;;50.20;31.30;;;11.10;99.90;;;;;;5024582;28;20103;-71
2023/05/07 05:01:37;;;;;;;46.80;30.63;;;11.10;99.90;;;;;;5043473;28;20055;-71
2023/05/07 05:04:03;;;;;;;47.00;30.87;;;11.10;99.90;;;;;;5030335;28;20055;-72
2023/05/07 05:06:28;;;;;;;45.67;31.67;;;11.10;99.90;;;;;;5048474;28;20370;-72
2023/05/07 05:08:55;;;;;;;47.57;31.30;;;11.20;99.90;;;;;;5046076;28;20053;-71
2023/05/07 05:11:20;;;;;;;52.63;34.20;;;11.20;99.90;;;;;;5030167;28;20094;-72
2023/05/07 05:13:49;;;;;;;47.17;32.77;;;11.20;99.90;;;;;;5030196;28;20783;-71
2023/05/07 05:16:15;;;;;;;53.30;33.33;;;11.20;99.90;;;;;;5031691;28;20040;-72
2023/05/07 05:18:41;;;;;;;48.30;32.40;;;11.20;99.90;;;;;;5045767;28;20048;-71
2023/05/07 05:21:06;;;;;;;53.33;33.20;;;11.20;99.90;;;;;;5048175;28;20279;-71
2023/05/07 05:23:32;;;;;;;51.53;33.80;;;11.20;99.90;;;;;;5029013;28;20048;-71
2023/05/07 05:25:58;;;;;;;46.70;32.53;;;11.20;99.90;;;;;;5022907;28;20068;-71
2023/05/07 05:28:24;;;;;;;49.38;33.42;;;11.30;99.90;;;;;;5027212;28;20088;-71
2023/05/07 05:30:50;;;;;;;52.17;33.57;;;11.30;99.90;;;;;;5024541;28;20073;-71
2023/05/07 05:33:16;;;;;;;55.47;34.83;;;11.30;99.90;;;;;;5025275;28;20037;-71
2023/05/07 05:35:42;;;;;;;50.23;34.13;;;11.30;99.90;;;;;;5036053;28;20037;-71
2023/05/07 05:38:08;;;;;;;50.07;33.20;;;11.30;99.90;;;;;;5036756;28;20291;-71
2023/05/07 05:40:33;;;;;;;51.47;33.73;;;11.30;99.90;;;;;;5019573;28;20304;-71
2023/05/07 05:42:59;;;;;;;50.67;32.27;;;11.30;99.90;;;;;;5035451;28;20287;-72
2023/05/07 05:45:25;;;;;;;51.83;33.90;;;11.30;99.90;;;;;;5018155;28;20048;-71
2023/05/07 05:47:51;;;;;;;50.70;33.33;;;11.30;99.90;;;;;;5034997;28;20287;-71
2023/05/07 05:50:17;;;;;;;51.07;33.83;;;11.40;99.90;;;;;;5040450;28;20119;-71
2023/05/07 05:52:43;;;;;;;54.17;35.20;;;11.50;99.90;;;;;;5021453;28;20187;-71
2023/05/07 05:55:09;;;;;;;49.57;31.97;;;11.50;99.90;;;;;;5019711;28;20072;-71
2023/05/07 05:57:35;;;;;;;48.90;34.00;;;11.50;99.90;;;;;;5029457;28;20519;-71
2023/05/07 06:00:02;;;;;;;54.03;33.70;;;11.60;99.90;;;;;;5028699;28;20827;-72
2023/05/07 06:02:28;;;;;;;51.50;34.03;;;11.60;99.90;;;;;;5023581;28;20687;-72
2023/05/07 06:04:54;;;;;;;61.33;34.87;;;11.70;99.90;;;;;;5046579;28;20450;-71
2023/05/07 06:07:19;;;;;;;49.03;33.10;;;11.70;99.90;;;;;;5030755;28;20079;-72
2023/05/07 06:09:45;;;;;;;49.23;33.77;;;11.70;99.90;;;;;;5045667;28;20041;-72
2023/05/07 06:12:11;;;;;;;49.33;32.57;;;11.80;99.90;;;;;;5029115;28;20074;-71
2023/05/07 06:14:37;;;;;;;46.30;31.17;;;11.80;99.90;;;;;;5027107;28;20154;-71
2023/05/07 06:17:03;;;;;;;43.23;30.33;;;11.90;99.90;;;;;;5026927;28;20347;-71
2023/05/07 06:19:29;;;;;;;49.10;32.63;;;11.90;99.90;;;;;;5045080;28;20464;-71
2023/05/07 06:21:56;;;;;;;46.93;30.27;;;12.00;99.90;;;;;;5026803;28;20064;-71
2023/05/07 06:24:22;;;;;;;42.87;28.97;;;12.00;99.90;;;;;;5044574;28;20041;-71
2023/05/07 06:26:48;;;;;;;44.93;31.30;;;12.10;99.90;;;;;;5030400;28;20279;-71
2023/05/07 06:29:14;;;;;;;44.13;29.50;;;12.10;99.90;;;;;;5038937;28;20310;-72
2023/05/07 06:31:39;;;;;;;43.20;30.20;;;12.20;99.90;;;;;;5034958;28;20052;-71
2023/05/07 06:34:05;;;;;;;42.87;30.53;;;12.20;99.90;;;;;;5041247;28;20037;-71
2023/05/07 06:36:31;;;;;;;42.63;30.60;;;12.30;99.90;;;;;;5050986;28;20091;-71
2023/05/07 06:38:57;;;;;;;41.80;29.73;;;12.30;99.90;;;;;;5034603;28;20558;-71
2023/05/07 06:41:22;;;;;;;38.63;28.03;;;12.50;99.90;;;;;;5030349;28;20498;-71
2023/05/07 06:43:48;;;;;;;40.23;29.40;;;12.60;99.90;;;;;;5047265;28;20041;-71
2023/05/07 06:46:14;;;;;;;38.30;27.67;;;12.70;99.90;;;;;;5028098;28;20056;-71
2023/05/07 06:48:40;;;;;;;39.07;28.90;;;12.80;99.90;;;;;;5030934;28;20111;-71
2023/05/07 06:51:06;;;;;;;35.63;26.80;;;12.90;99.90;;;;;;5045708;28;20292;-72
2023/05/07 06:53:31;;;;;;;38.77;28.20;;;12.90;99.90;;;;;;5024668;28;20049;-72
2023/05/07 06:55:57;;;;;;;40.03;27.87;;;12.90;99.90;;;;;;5025406;28;20077;-71
2023/05/07 06:58:23;;;;;;;36.17;26.60;;;12.90;99.90;;;;;;5034015;28;20041;-72
2023/05/07 07:00:49;;;;;;;33.43;26.63;;;12.90;99.90;;;;;;5032756;28;20110;-72
2023/05/07 07:03:15;;;;;;;36.73;28.07;;;13.00;99.90;;;;;;5050099;28;20045;-72
2023/05/07 07:05:41;;;;;;;35.33;26.23;;;13.00;99.90;;;;;;5026664;28;20460;-72
2023/05/07 07:08:07;;;;;;;35.90;25.77;;;13.00;99.90;;;;;;5028718;28;20518;-72
2023/05/07 07:10:33;;;;;;;32.63;25.90;;;13.00;99.90;;;;;;5032281;28;20284;-72
2023/05/07 07:12:59;;;;;;;31.17;25.33;;;13.10;99.90;;;;;;5026148;28;20138;-71
2023/05/07 07:15:24;;;;;;;36.93;26.43;;;13.20;99.90;;;;;;5045054;28;20902;-71
2023/05/07 07:17:51;;;;;;;31.20;25.27;;;13.30;99.90;;;;;;5049550;28;20123;-71
2023/05/07 07:20:16;;;;;;;33.13;25.57;;;13.40;99.90;;;;;;5033689;28;20048;-71
2023/05/07 07:22:42;;;;;;;33.63;25.83;;;13.50;99.90;;;;;;5031785;28;20341;-71
2023/05/07 07:25:08;;;;;;;30.63;24.40;;;13.70;99.90;;;;;;5030306;28;20045;-71
2023/05/07 07:27:34;;;;;;;31.03;24.33;;;13.90;99.90;;;;;;5034092;28;20456;-71
2023/05/07 07:30:00;;;;;;;33.03;23.87;;;14.00;99.90;;;;;;5031759;28;20284;-71
2023/05/07 07:32:26;;;;;;;32.47;24.67;;;14.10;99.90;;;;;;5033745;28;20447;-71
2023/05/07 07:34:51;;;;;;;31.37;24.70;;;14.10;99.90;;;;;;5050440;28;20036;-71
2023/05/07 07:37:17;;;;;;;30.07;23.60;;;14.20;99.90;;;;;;5025216;28;20045;-71
2023/05/07 07:39:43;;;;;;;29.97;24.13;;;14.20;99.90;;;;;;5049623;28;20044;-71
2023/05/07 07:42:09;;;;;;;30.70;23.40;;;14.30;99.90;;;;;;5044501;28;20163;-72
2023/05/07 07:44:34;;;;;;;28.90;22.77;;;14.30;99.90;;;;;;5041071;28;20052;-72
2023/05/07 07:47:00;;;;;;;29.03;23.10;;;14.20;99.90;;;;;;5049053;28;20299;-71
2023/05/07 07:49:26;;;;;;;30.57;24.13;;;14.20;99.90;;;;;;5047020;28;20095;-71
2023/05/07 07:51:52;;;;;;;29.57;23.03;;;14.20;99.90;;;;;;5027550;28;20060;-71
2023/05/07 07:54:18;;;;;;;31.37;23.00;;;14.20;99.90;;;;;;5046008;28;20300;-71
2023/05/07 07:56:44;;;;;;;29.07;24.47;;;14.20;99.90;;;;;;5043542;28;20045;-72
2023/05/07 07:59:09;;;;;;;27.60;23.27;;;14.10;99.90;;;;;;5046276;28;20132;-72
2023/05/07 08:01:35;;;;;;;29.23;23.83;;;14.10;99.90;;;;;;5032739;28;20040;-72
2023/05/07 08:04:02;;;;;;;28.83;22.63;;;14.20;99.90;;;;;;5028745;28;20144;-72
2023/05/07 08:06:29;;;;;;;28.17;23.40;;;14.30;99.90;;;;;;5032132;28;20128;-72
2023/05/07 08:08:55;;;;;;;30.80;23.13;;;14.30;99.90;;;;;;5048438;28;20299;-72
2023/05/07 08:11:21;;;;;;;28.47;22.97;;;14.30;99.90;;;;;;5032625;28;20293;-72
2023/05/07 08:13:47;;;;;;;27.93;22.40;;;14.40;99.90;;;;;;5047639;28;20782;-72
2023/05/07 08:16:13;;;;;;;28.17;23.07;;;14.40;99.90;;;;;;5031267;28;20307;-72
2023/05/07 08:18:39;;;;;;;29.87;22.77;;;14.40;99.90;;;;;;5037255;28;20303;-72
2023/05/07 08:21:05;;;;;;;28.93;22.67;;;14.50;99.90;;;;;;5046783;28;20095;-72
2023/05/07 08:23:31;;;;;;;30.90;23.20;;;14.70;99.90;;;;;;5030238;28;20148;-72
2023/05/07 08:25:57;;;;;;;29.50;23.67;;;15.00;99.90;;;;;;5032777;28;20103;-72
2023/05/07 08:28:24;;;;;;;28.97;22.87;;;15.40;99.90;;;;;;5025739;28;20369;-72
2023/05/07 08:30:50;;;;;;;27.73;21.97;;;15.60;99.90;;;;;;5032463;28;20044;-72
2023/05/07 08:33:16;;;;;;;29.07;22.47;;;15.70;99.90;;;;;;5049010;28;20284;-71
2023/05/07 08:35:42;;;;;;;27.93;22.40;;;15.80;99.90;;;;;;5029702;28;20488;-72
2023/05/07 08:38:07;;;;;;;27.20;21.50;;;15.90;99.90;;;;;;5045815;28;20041;-72
2023/05/07 08:40:40;;;;;;;27.40;21.83;;;16.00;99.90;;;;;;5017684;28;20033;-72
2023/05/07 08:43:06;;;;;;;26.43;22.03;;;16.10;99.90;;;;;;5047217;28;20037;-72
2023/05/07 08:45:33;;;;;;;28.07;22.10;;;16.20;99.90;;;;;;5025535;28;20280;-71
2023/05/07 08:48:04;;;;;;;28.60;21.80;;;16.30;99.90;;;;;;5028992;28;20275;-71
2023/05/07 08:50:30;;;;;;;30.50;22.27;;;16.40;99.90;;;;;;5047322;28;20928;-71
2023/05/07 08:52:56;;;;;;;28.57;22.40;;;16.40;99.90;;;;;;5029374;28;20315;-71
2023/05/07 08:55:23;;;;;;;27.83;22.97;;;16.60;99.90;;;;;;5031248;28;20415;-72
2023/05/07 08:57:49;;;;;;;27.90;22.03;;;16.80;99.90;;;;;;5048420;28;20297;-72
2023/05/07 09:00:15;;;;;;;27.07;21.90;;;16.90;99.90;;;;;;5042717;28;20300;-72
2023/05/07 09:02:41;;;;;;;26.90;22.03;;;17.10;99.90;;;;;;5030139;28;20825;-72
2023/05/07 09:05:07;;;;;;;27.57;22.73;;;17.30;99.90;;;;;;5047519;28;20370;-72
2023/05/07 09:07:33;;;;;;;27.30;21.37;;;17.50;99.90;;;;;;5044886;28;20045;-72
2023/05/07 09:10:02;;;;;;;28.60;22.20;;;17.90;99.90;;;;;;5048050;28;20294;-72
2023/05/07 09:12:28;;;;;;;23.77;20.97;;;18.20;99.90;;;;;;5047574;28;20147;-72
2023/05/07 09:14:53;;;;;;;25.50;21.03;;;18.30;99.90;;;;;;5047972;28;20842;-72
2023/05/07 09:17:19;;;;;;;24.17;20.73;;;18.20;99.90;;;;;;5029655;28;20129;-72
2023/05/07 09:19:45;;;;;;;24.70;21.13;;;18.10;99.90;;;;;;5046591;28;20055;-72
2023/05/07 09:22:12;;;;;;;29.47;22.80;;;18.10;99.90;;;;;;5045354;28;20287;-72
2023/05/07 09:24:38;;;;;;;27.73;21.47;;;18.00;99.90;;;;;;5031974;28;21026;-72
2023/05/07 09:27:05;;;;;;;27.00;21.87;;;17.90;99.90;;;;;;5029991;28;20280;-72
2023/05/07 09:29:37;;;;;;;28.00;22.73;;;18.00;99.90;;;;;;5026222;28;20814;-72
2023/05/07 09:32:07;;;;;;;24.40;20.37;;;18.00;99.90;;;;;;5032138;28;20756;-72
2023/05/07 09:34:34;;;;;;;24.50;20.93;;;18.10;99.90;;;;;;5040389;28;20791;-72
2023/05/07 09:37:05;;;;;;;27.93;22.07;;;18.30;99.90;;;;;;5024048;28;20805;-72
2023/05/07 09:39:49;;;;;;;26.77;22.27;;;18.30;99.90;;;;;;5038136;28;20361;-72
2023/05/07 09:42:15;;;;;;;29.00;23.40;;;18.30;99.90;;;;;;5035081;28;20351;-72
2023/05/07 09:44:41;;;;;;;27.27;22.57;;;18.30;99.90;;;;;;5024502;28;20111;-72
2023/05/07 09:47:08;;;;;;;28.83;21.87;;;18.30;99.90;;;;;;5047164;28;20041;-72
2023/05/07 09:49:36;;;;;;;28.90;22.20;;;18.30;99.90;;;;;;5040995;28;20349;-72
2023/05/07 09:52:05;;;;;;;25.87;22.00;;;18.40;99.90;;;;;;5040559;28;20291;-72
2023/05/07 09:54:33;;;;;;;24.90;22.17;;;18.50;99.90;;;;;;5025688;28;20064;-72
2023/05/07 09:57:02;;;;;;;26.30;21.27;;;18.50;99.90;;;;;;5021336;28;20294;-72
2023/05/07 09:59:29;;;;;;;27.50;22.40;;;18.30;99.90;;;;;;5039611;28;20331;-72
2023/05/07 10:01:58;;;;;;;26.17;22.07;;;18.20;99.90;;;;;;5040557;28;20287;-72
2023/05/07 10:04:26;;;;;;;27.33;22.07;;;18.10;99.90;;;;;;5045991;28;20290;-72
2023/05/07 10:06:53;;;;;;;25.80;22.43;;;18.10;99.90;;;;;;5035146;28;21621;-72
2023/05/07 10:09:19;;;;;;;27.80;21.67;;;18.20;99.90;;;;;;5022431;28;20291;-72
2023/05/07 10:11:46;;;;;;;25.60;21.70;;;18.20;99.90;;;;;;5030190;28;20298;-72
2023/05/07 10:14:13;;;;;;;24.60;21.37;;;18.20;99.90;;;;;;5044355;28;20287;-72
2023/05/07 10:16:39;;;;;;;26.67;22.40;;;18.40;99.90;;;;;;5031054;28;20060;-71
2023/05/07 10:19:12;;;;;;;25.27;22.37;;;18.30;99.90;;;;;;5039771;28;20045;-71
2023/05/07 10:21:39;;;;;;;27.73;23.33;;;18.40;99.90;;;;;;5041779;28;20665;-71
2023/05/07 10:24:19;;;;;;;28.07;23.10;;;18.40;99.90;;;;;;5046984;28;20204;-71
2023/05/07 10:26:49;;;;;;;28.13;23.40;;;18.40;99.90;;;;;;5030689;28;20363;-71
2023/05/07 10:29:26;;;;;;;30.43;21.80;;;18.40;99.90;;;;;;5039697;28;20359;-71
2023/05/07 10:32:03;;;;;;;29.27;23.07;;;18.40;99.90;;;;;;5021447;28;20647;-71
2023/05/07 10:34:37;;;;;;;26.83;22.23;;;18.40;99.90;;;;;;5031072;28;20268;-71
2023/05/07 10:37:04;;;;;;;27.23;22.00;;;18.40;99.90;;;;;;5044971;28;20731;-71
2023/05/07 10:39:30;;;;;;;27.13;22.53;;;18.50;99.90;;;;;;5027686;28;20104;-71
2023/05/07 10:41:56;;;;;;;27.47;23.20;;;18.40;99.90;;;;;;5030831;28;20791;-71
2023/05/07 10:44:27;;;;;;;28.73;22.60;;;18.50;99.90;;;;;;5042383;28;20034;-71
2023/05/07 10:47:05;;;;;;;27.63;22.93;;;18.50;99.90;;;;;;5043626;28;20041;-71
2023/05/07 10:49:30;;;;;;;26.70;22.67;;;18.50;99.90;;;;;;5028024;28;20037;-71
2023/05/07 10:52:21;;;;;;;25.43;22.13;;;18.50;99.90;;;;;;5046999;28;20060;-71
2023/05/07 10:54:47;;;;;;;30.00;22.90;;;18.60;99.90;;;;;;5045177;28;20055;-71
2023/05/07 10:57:31;;;;;;;27.70;23.90;;;18.60;99.90;;;;;;5033798;28;20366;-71
2023/05/07 10:59:57;;;;;;;29.93;23.30;;;18.70;99.90;;;;;;5045178;28;20045;-72
2023/05/07 11:02:43;;;;;;;28.90;23.10;;;18.80;99.90;;;;;;5044343;28;20687;-71
2023/05/07 11:05:24;;;;;;;26.03;21.80;;;18.80;99.90;;;;;;5046747;28;20068;-71
2023/05/07 11:08:01;;;;;;;27.60;22.93;;;18.80;99.90;;;;;;5043534;28;20123;-71
2023/05/07 11:10:49;;;;;;;28.80;23.17;;;18.80;99.90;;;;;;5040904;28;20521;-71
2023/05/07 11:13:16;;;;;;;28.67;23.37;;;18.70;99.90;;;;;;5030895;28;20635;-71
2023/05/07 11:15:47;;;;;;;28.60;23.83;;;18.70;99.90;;;;;;5048895;28;20045;-71
2023/05/07 11:18:15;;;;;;;27.43;22.37;;;18.70;99.90;;;;;;5032325;28;20041;-71
2023/05/07 11:20:55;;;;;;;29.00;23.57;;;18.90;99.90;;;;;;5048551;28;20432;-71
2023/05/07 11:23:37;;;;;;;29.13;22.07;;;19.00;99.90;;;;;;5032800;28;20134;-71
2023/05/07 11:26:04;;;;;;;27.43;22.30;;;19.10;99.90;;;;;;5051006;28;20496;-71
2023/05/07 11:28:31;;;;;;;27.57;23.27;;;19.30;99.90;;;;;;5049244;28;20490;-71
2023/05/07 11:30:57;;;;;;;29.93;23.27;;;19.40;99.90;;;;;;5049970;28;20056;-71
2023/05/07 11:33:26;;;;;;;26.73;22.10;;;19.70;99.90;;;;;;5048092;28;20040;-71
2023/05/07 11:35:56;;;;;;;27.20;22.17;;;19.80;99.90;;;;;;5033551;28;20559;-71
2023/05/07 11:38:22;;;;;;;25.87;21.73;;;19.90;99.90;;;;;;5047036;28;20370;-72
2023/05/07 11:41:04;;;;;;;26.47;21.50;;;20.00;99.90;;;;;;5047499;28;20159;-71
2023/05/07 11:43:31;;;;;;;27.47;22.00;;;20.10;99.90;;;;;;5030544;28;20248;-71
2023/05/07 11:46:07;;;;;;;25.37;21.93;;;20.10;99.90;;;;;;5031194;28;20030;-71
2023/05/07 11:48:32;;;;;;;26.93;21.43;;;20.30;99.90;;;;;;5038748;28;20037;-71
2023/05/07 11:50:58;;;;;;;23.27;20.43;;;20.40;99.90;;;;;;5041493;28;20424;-71
2023/05/07 11:53:34;;;;;;;23.27;20.40;;;20.50;99.90;;;;;;5050250;28;20049;-71
2023/05/07 11:56:06;;;;;;;26.03;21.30;;;20.80;99.90;;;;;;5049601;28;20175;-72
2023/05/07 11:58:32;;;;;;;22.87;20.10;;;20.90;98.40;;;;;;5029562;28;20037;-72
2023/05/07 12:00:58;;;;;;;24.03;20.07;;;20.90;97.70;;;;;;5027333;28;20064;-72
2023/05/07 12:03:23;;;;;;;22.00;19.50;;;20.80;97.90;;;;;;5032894;28;20041;-72
2023/05/07 12:05:49;;;;;;;25.20;21.03;;;20.90;98.10;;;;;;5032943;28;20052;-72
2023/05/07 12:08:16;;;;;;;23.73;20.67;;;20.90;97.50;;;;;;5050021;28;20043;-72
2023/05/07 12:10:42;;;;;;;23.33;20.83;;;20.80;98.20;;;;;;5049713;28;20126;-72
2023/05/07 12:13:35;;;;;;;22.87;19.80;;;20.80;97.80;;;;;;5032006;28;20045;-72
2023/05/07 12:16:03;;;;;;;22.90;20.43;;;20.80;97.20;;;;;;5012370;28;20064;-72
2023/05/07 12:18:29;;;;;;;23.80;20.67;;;20.80;98.00;;;;;;5042966;28;20543;-72
2023/05/07 12:20:55;;;;;;;23.63;20.23;;;20.90;97.70;;;;;;5032938;28;20065;-72
2023/05/07 12:23:22;;;;;;;24.07;19.63;;;20.90;98.20;;;;;;5047032;28;20069;-72
2023/05/07 12:25:48;;;;;;;22.80;18.90;;;20.90;96.80;;;;;;5049187;28;20053;-72
2023/05/07 12:28:15;;;;;;;21.67;19.23;;;20.90;94.90;;;;;;5048448;28;20120;-72